Time;durP1;ratioP1;P1;durP2;ratioP2;P2;SDS_P1;SDS_P2;PMS_P1;PMS_P2;Temp;Humidity;BMP_temperature;BMP_pressure;BME280_temperature;BME280_humidity;BME280_pressure;Samples;Min_cycle;Max_cycle;Signal;HPM_P1;HPM_P2
2022/10/26 00:00:41;;;;;;;;;3.00;3.00;;;;;22.65;50.36;100555.56;5058213;28;45216;-65
2022/10/26 00:03:06;;;;;;;;;2.00;2.00;;;;;22.66;50.83;100567.78;5057604;28;46437;-62
2022/10/26 00:05:33;;;;;;;;;4.00;2.75;;;;;22.65;50.97;100566.13;5056732;28;45338;-62
2022/10/26 00:07:58;;;;;;;;;4.00;3.00;;;;;22.63;50.65;100570.66;5057338;28;45369;-58
2022/10/26 00:10:24;;;;;;;;;4.75;3.00;;;;;22.64;50.65;100569.72;5057920;28;45340;-57
2022/10/26 00:12:49;;;;;;;;;3.00;3.00;;;;;22.64;51.16;100564.44;5056899;28;52074;-56
2022/10/26 00:15:16;;;;;;;;;4.25;3.75;;;;;22.64;51.06;100573.19;5058867;28;45387;-57
2022/10/26 00:17:42;;;;;;;;;2.00;2.00;;;;;22.63;50.68;100568.84;5061545;28;45429;-57
2022/10/26 00:20:07;;;;;;;;;3.75;3.50;;;;;22.63;50.71;100568.03;5064626;28;45330;-56
2022/10/26 00:22:33;;;;;;;;;5.75;3.00;;;;;22.62;50.44;100564.53;5060800;28;45574;-56
2022/10/26 00:24:58;;;;;;;;;3.75;1.75;;;;;22.62;50.54;100571.63;5056026;28;45220;-57
2022/10/26 00:27:23;;;;;;;;;4.00;3.00;;;;;22.62;50.58;100555.75;5063626;28;46484;-56
2022/10/26 00:29:48;;;;;;;;;1.75;1.75;;;;;22.61;50.53;100565.47;5072814;28;45154;-56
2022/10/26 00:32:14;;;;;;;;;3.00;2.75;;;;;22.60;50.69;100562.94;5072211;28;45567;-55
2022/10/26 00:34:39;;;;;;;;;3.25;3.25;;;;;22.60;50.77;100565.59;5065157;28;45357;-56
2022/10/26 00:37:04;;;;;;;;;4.00;2.25;;;;;22.59;50.74;100563.88;5059817;28;45308;-55
2022/10/26 00:39:30;;;;;;;;;2.50;2.50;;;;;22.60;50.66;100568.22;5065154;28;45568;-58
2022/10/26 00:41:55;;;;;;;;;3.00;2.25;;;;;22.60;50.88;100562.94;5070077;28;46065;-56
2022/10/26 00:44:45;;;;;;;;;2.25;2.25;;;;;22.59;50.74;100572.69;5056219;28;45363;-56
2022/10/26 00:47:27;;;;;;;;;3.00;3.00;;;;;22.58;50.77;100570.97;5064852;28;45370;-56
2022/10/26 00:49:56;;;;;;;;;3.00;3.00;;;;;22.57;50.56;100564.00;5063101;28;45276;-56
2022/10/26 00:52:23;;;;;;;;;4.25;3.75;;;;;22.57;50.94;100558.72;5059301;28;45681;-55
2022/10/26 00:54:50;;;;;;;;;2.00;1.00;;;;;22.56;50.78;100562.31;5059577;28;45625;-59
2022/10/26 00:57:18;;;;;;;;;3.50;3.50;;;;;22.55;50.57;100569.38;5059194;28;45204;-57
2022/10/26 00:59:45;;;;;;;;;4.00;3.00;;;;;22.53;50.87;100573.94;5059629;28;45465;-55
2022/10/26 01:02:11;;;;;;;;;3.00;3.00;;;;;22.52;50.84;100588.09;5059535;28;46585;-56
2022/10/26 01:04:36;;;;;;;;;4.50;3.25;;;;;22.53;50.73;100595.06;5059081;28;45399;-56
2022/10/26 01:07:03;;;;;;;;;3.00;3.00;;;;;22.54;51.11;100601.19;5059754;28;45418;-56
2022/10/26 01:09:31;;;;;;;;;4.50;2.00;;;;;22.53;51.00;100610.91;5059918;28;45312;-57
2022/10/26 01:11:56;;;;;;;;;2.75;2.00;;;;;22.54;50.77;100609.94;5059912;28;45317;-57
2022/10/26 01:14:24;;;;;;;;;3.00;2.25;;;;;22.53;50.74;100610.06;5067119;28;45302;-57
2022/10/26 01:17:39;;;;;;;;;3.00;3.00;;;;;22.51;50.72;100612.81;5068481;28;45345;-57
2022/10/26 01:20:28;;;;;;;;;3.00;3.00;;;;;22.53;50.90;100616.19;5024397;28;45700;-57
2022/10/26 01:23:11;;;;;;;;;2.75;2.00;;;;;22.52;50.82;100624.19;5059046;28;45365;-57
2022/10/26 01:25:55;;;;;;;;;3.00;2.00;;;;;22.52;51.01;100619.78;5058469;28;45405;-58
2022/10/26 01:28:34;;;;;;;;;2.50;2.50;;;;;22.52;51.05;100621.56;5059118;28;45478;-56
2022/10/26 01:31:03;;;;;;;;;4.75;3.75;;;;;22.52;50.82;100629.50;5059308;28;45407;-59
2022/10/26 01:33:36;;;;;;;;;2.00;2.00;;;;;22.50;50.82;100619.03;5059148;28;45471;-57
2022/10/26 01:36:13;;;;;;;;;3.00;3.00;;;;;22.52;50.81;100618.91;5057242;28;45892;-56
2022/10/26 01:39:08;;;;;;;;;0.00;0.00;;;;;22.51;50.91;100627.78;5058937;28;45417;-58
2022/10/26 01:41:40;;;;;;;;;3.00;3.00;;;;;22.50;50.83;100626.97;5060204;28;45450;-56
2022/10/26 01:44:13;;;;;;;;;4.00;3.00;;;;;22.51;50.93;100625.16;5066006;28;45516;-55
2022/10/26 01:46:42;;;;;;;;;2.50;2.50;;;;;22.50;50.95;100624.31;5059298;28;45276;-56
2022/10/26 01:49:11;;;;;;;;;2.00;2.00;;;;;22.51;51.04;100633.06;5058641;28;45396;-56
2022/10/26 01:51:43;;;;;;;;;2.00;2.00;;;;;22.50;50.88;100624.31;5058762;28;45889;-58
2022/10/26 01:54:09;;;;;;;;;3.25;2.00;;;;;22.49;50.96;100619.97;5058538;28;45424;-57
2022/10/26 01:56:40;;;;;;;;;3.00;3.00;;;;;22.49;50.83;100619.97;5058228;28;45795;-56
2022/10/26 01:59:38;;;;;;;;;2.50;2.50;;;;;22.50;50.76;100623.47;5061501;28;45276;-55
2022/10/26 02:02:28;;;;;;;;;3.75;2.75;;;;;22.50;50.81;100620.81;5078271;28;45260;-57
2022/10/26 02:05:06;;;;;;;;;3.00;3.00;;;;;22.50;50.94;100628.75;5061926;28;45500;-56
2022/10/26 02:07:56;;;;;;;;;3.00;3.00;;;;;22.49;51.00;100646.41;5072793;28;45678;-56
2022/10/26 02:10:39;;;;;;;;;3.00;3.00;;;;;22.49;50.71;100651.69;5076149;28;44706;-57
2022/10/26 02:13:25;;;;;;;;;2.00;2.00;;;;;22.49;50.70;100656.13;5071755;28;45404;-58
2022/10/26 02:15:59;;;;;;;;;2.50;2.50;;;;;22.50;50.99;100655.16;5074713;28;45634;-55
2022/10/26 02:18:46;;;;;;;;;3.00;3.00;;;;;22.49;50.75;100656.13;5068447;28;45327;-56
2022/10/26 02:21:20;;;;;;;;;3.25;3.25;;;;;22.48;50.78;100651.78;5059243;28;45445;-56
2022/10/26 02:23:48;;;;;;;;;2.75;2.75;;;;;22.48;51.02;100652.63;5059651;28;45354;-57
2022/10/26 02:26:18;;;;;;;;;2.50;2.50;;;;;22.47;51.15;100643.00;5057914;28;46768;-55
2022/10/26 02:28:48;;;;;;;;;3.50;3.50;;;;;22.48;50.71;100641.22;5057892;28;46266;-57
2022/10/26 02:31:15;;;;;;;;;5.75;3.00;;;;;22.48;51.08;100649.16;5057927;28;45436;-56
2022/10/26 02:33:45;;;;;;;;;3.00;3.00;;;;;22.47;50.88;100653.56;5056953;28;45261;-56
2022/10/26 02:36:15;;;;;;;;;2.75;2.75;;;;;22.48;51.03;100665.81;5058015;28;46937;-56
2022/10/26 02:38:42;;;;;;;;;3.00;3.00;;;;;22.49;50.74;100658.75;5061669;28;45662;-59
2022/10/26 02:41:10;;;;;;;;;2.50;2.50;;;;;22.48;50.89;100654.44;5062878;28;45301;-56
2022/10/26 02:43:43;;;;;;;;;3.00;3.00;;;;;22.47;50.94;100669.41;5069921;28;45373;-57
2022/10/26 02:46:13;;;;;;;;;2.25;2.25;;;;;22.47;51.01;100656.22;5074962;28;45318;-57
2022/10/26 02:48:39;;;;;;;;;4.50;3.00;;;;;22.46;50.71;100662.44;5058206;28;45265;-56
2022/10/26 02:51:44;;;;;;;;;3.00;3.00;;;;;22.47;50.78;100665.94;5058649;28;45303;-57
2022/10/26 02:54:26;;;;;;;;;1.00;1.00;;;;;22.46;50.74;100654.50;4996329;28;45362;-56
2022/10/26 02:56:56;;;;;;;;;3.75;3.00;;;;;22.46;50.85;100659.78;5053518;28;46658;-57
2022/10/26 02:59:25;;;;;;;;;2.00;2.00;;;;;22.46;51.18;100654.50;5057816;28;45617;-56
2022/10/26 03:01:51;;;;;;;;;2.75;2.75;;;;;22.45;50.90;100652.81;5057967;28;45683;-58
2022/10/26 03:04:17;;;;;;;;;4.00;4.00;;;;;22.46;50.95;100657.16;5058050;28;45546;-59
2022/10/26 03:06:51;;;;;;;;;2.75;2.75;;;;;22.47;50.78;100656.22;5060157;28;58412;-56
2022/10/26 03:09:16;;;;;;;;;4.75;2.25;;;;;22.46;50.59;100654.50;5061058;28;45244;-58
2022/10/26 03:11:41;;;;;;;;;3.25;2.25;;;;;22.46;50.85;100651.88;5058431;28;45792;-56
2022/10/26 03:14:07;;;;;;;;;3.25;3.25;;;;;22.46;50.75;100651.88;5068251;28;45688;-55
2022/10/26 03:16:32;;;;;;;;;3.00;3.00;;;;;22.46;50.83;100661.59;5067171;28;61713;-58
2022/10/26 03:18:59;;;;;;;;;3.00;3.00;;;;;22.46;50.89;100666.88;5069418;28;45432;-57
2022/10/26 03:21:24;;;;;;;;;3.50;3.50;;;;;22.45;50.73;100657.25;5073816;28;51322;-55
2022/10/26 03:23:50;;;;;;;;;3.00;3.00;;;;;22.45;50.96;100667.81;5079930;28;45206;-55
2022/10/26 03:26:16;;;;;;;;;2.50;2.50;;;;;22.44;51.19;100674.88;5078971;28;45218;-57
2022/10/26 03:28:41;;;;;;;;;4.75;3.00;;;;;22.46;50.83;100680.91;5078741;28;45188;-56
2022/10/26 03:31:06;;;;;;;;;2.50;2.50;;;;;22.44;50.86;100688.09;5078445;28;44748;-56
2022/10/26 03:33:32;;;;;;;;;2.00;2.00;;;;;22.45;51.06;100687.16;5078769;28;44940;-55
2022/10/26 03:36:00;;;;;;;;;2.50;2.50;;;;;22.45;50.85;100688.97;5078630;28;54252;-57
2022/10/26 03:38:25;;;;;;;;;3.50;3.00;;;;;22.44;50.91;100688.09;5079486;28;56554;-55
2022/10/26 03:40:51;;;;;;;;;3.50;2.00;;;;;22.45;51.02;100691.59;5079370;28;44738;-57
2022/10/26 03:43:16;;;;;;;;;3.00;3.00;;;;;22.44;50.85;100688.09;5054118;28;45572;-57
2022/10/26 03:45:42;;;;;;;;;2.25;2.25;;;;;22.44;50.80;100690.72;5060627;28;45756;-58
2022/10/26 03:48:07;;;;;;;;;3.00;3.00;;;;;22.44;50.92;100696.00;5060429;28;45475;-57
2022/10/26 03:50:32;;;;;;;;;3.50;3.00;;;;;22.44;51.04;100701.28;5061429;28;45359;-58
2022/10/26 03:52:58;;;;;;;;;3.75;3.25;;;;;22.43;50.87;100710.19;5060613;28;45296;-56
2022/10/26 03:55:23;;;;;;;;;2.50;2.50;;;;;22.43;50.77;100717.25;5058024;28;57776;-55
2022/10/26 03:57:48;;;;;;;;;2.00;2.00;;;;;22.43;51.24;100720.75;5060098;28;46068;-57
2022/10/26 04:00:16;;;;;;;;;4.25;3.00;;;;;22.43;51.03;100727.81;5065193;28;45218;-56
2022/10/26 04:02:47;;;;;;;;;2.25;2.25;;;;;22.42;51.13;100742.81;5079354;28;45205;-55
2022/10/26 04:05:13;;;;;;;;;4.00;4.00;;;;;22.43;50.81;100733.09;5081382;28;45637;-54
2022/10/26 04:07:38;;;;;;;;;2.75;2.75;;;;;22.42;50.92;100729.63;5075455;28;44971;-54
2022/10/26 04:10:05;;;;;;;;;1.25;1.25;;;;;22.41;50.94;100735.84;5064136;28;45566;-56
2022/10/26 04:12:30;;;;;;;;;3.25;3.00;;;;;22.41;51.25;100738.50;5057124;28;45522;-54
2022/10/26 04:14:57;;;;;;;;;5.25;4.50;;;;;22.41;51.05;100741.13;5056415;28;45265;-55
2022/10/26 04:17:23;;;;;;;;;6.50;6.00;;;;;22.40;51.12;100742.03;5056031;28;45193;-53
2022/10/26 04:19:48;;;;;;;;;6.75;4.50;;;;;22.42;51.06;100745.47;5056571;28;45442;-57
2022/10/26 04:22:13;;;;;;;;;5.50;5.50;;;;;22.42;51.25;100756.03;5057015;28;45653;-56
2022/10/26 04:24:39;;;;;;;;;6.75;6.25;;;;;22.42;51.10;100761.31;5059727;28;45680;-57
2022/10/26 04:27:04;;;;;;;;;7.50;6.25;;;;;22.42;50.98;100761.31;5061901;28;59568;-55
2022/10/26 04:29:29;;;;;;;;;6.75;5.25;;;;;22.41;51.18;100759.63;5067250;28;45383;-57
2022/10/26 04:31:54;;;;;;;;;4.75;4.25;;;;;22.41;51.19;100771.94;5065653;28;45580;-55
2022/10/26 04:34:20;;;;;;;;;5.00;5.00;;;;;22.41;51.62;100774.59;5057923;28;47054;-56
2022/10/26 04:36:45;;;;;;;;;6.50;6.25;;;;;22.41;51.58;100783.38;5059760;28;45497;-56
2022/10/26 04:39:10;;;;;;;;;4.50;4.25;;;;;22.41;51.40;100793.94;5058960;28;45500;-55
2022/10/26 04:41:36;;;;;;;;;4.75;4.75;;;;;22.39;51.37;100793.16;5060958;28;53701;-57
2022/10/26 04:44:01;;;;;;;;;4.50;4.50;;;;;22.40;51.34;100789.56;5080875;28;46361;-56
2022/10/26 04:46:27;;;;;;;;;4.00;4.00;;;;;22.39;51.38;100804.56;5059406;28;50459;-55
2022/10/26 04:48:52;;;;;;;;;4.75;4.75;;;;;22.40;51.32;100800.13;5060938;28;45493;-57
2022/10/26 04:51:17;;;;;;;;;6.67;5.00;;;;;22.39;51.50;100809.00;5059602;28;58374;-56
2022/10/26 04:53:43;;;;;;;;;8.00;6.25;;;;;22.40;51.94;100818.63;5060317;28;47425;-55
2022/10/26 04:56:08;;;;;;;;;5.50;5.50;;;;;22.40;51.87;100821.25;5061511;28;45308;-57
2022/10/26 04:58:33;;;;;;;;;7.00;6.00;;;;;22.42;52.51;100835.25;5064939;28;45425;-57
2022/10/26 05:01:01;;;;;;;;;7.50;6.00;;;;;22.41;52.29;100833.56;5069205;28;50162;-55
2022/10/26 05:03:26;;;;;;;;;6.00;4.75;;;;;22.43;52.42;100842.22;5072714;28;46958;-56
2022/10/26 05:05:52;;;;;;;;;6.00;4.25;;;;;22.43;52.67;100831.66;5070624;28;46633;-56
2022/10/26 05:08:17;;;;;;;;;6.00;4.00;;;;;22.43;52.87;100842.22;5063481;28;45204;-56
2022/10/26 05:10:48;;;;;;;;;7.00;4.25;;;;;22.45;53.29;100850.06;5072807;28;45571;-55
2022/10/26 05:13:13;;;;;;;;;9.00;5.00;;;;;22.45;53.41;100839.47;5071453;28;45636;-57
2022/10/26 05:15:38;;;;;;;;;5.00;4.00;;;;;22.44;53.18;100849.19;5078897;28;44759;-60
2022/10/26 05:18:04;;;;;;;;;6.75;4.75;;;;;22.46;53.51;100851.75;5078452;28;45429;-61
2022/10/26 05:20:32;;;;;;;;;6.75;5.00;;;;;22.46;53.55;100852.59;5069892;28;45173;-56
2022/10/26 05:23:00;;;;;;;;;7.75;5.25;;;;;22.46;53.69;100852.59;5065366;28;45436;-56
2022/10/26 05:25:26;;;;;;;;;3.75;3.75;;;;;22.45;53.63;100861.44;5065308;28;46358;-54
2022/10/26 05:27:56;;;;;;;;;7.00;5.00;;;;;22.45;54.04;100864.09;5068259;28;45349;-56
2022/10/26 05:30:22;;;;;;;;;5.00;4.00;;;;;22.45;53.81;100864.09;5079890;28;45258;-57
2022/10/26 05:32:59;;;;;;;;;6.00;5.25;;;;;22.45;54.11;100872.00;5084238;28;46660;-55
2022/10/26 05:35:25;;;;;;;;;7.00;4.25;;;;;22.45;54.10;100869.38;5081296;28;45149;-57
2022/10/26 05:37:51;;;;;;;;;6.00;5.00;;;;;22.46;53.82;100880.78;5079495;28;45452;-56
2022/10/26 05:40:17;;;;;;;;;4.25;4.00;;;;;22.44;53.83;100880.88;5079917;28;45436;-55
2022/10/26 05:42:43;;;;;;;;;5.00;5.00;;;;;22.45;53.70;100881.75;5079704;28;46018;-57
2022/10/26 05:45:09;;;;;;;;;6.00;3.75;;;;;22.44;53.73;100891.44;5077483;28;45786;-58
2022/10/26 05:47:38;;;;;;;;;3.25;3.25;;;;;22.43;54.02;100897.69;5069228;28;45268;-58
2022/10/26 05:50:04;;;;;;;;;7.00;3.25;;;;;22.43;53.91;100900.34;5063052;28;45607;-57
2022/10/26 05:52:29;;;;;;;;;4.50;4.50;;;;;22.43;53.65;100900.34;5059857;28;46730;-56
2022/10/26 05:54:54;;;;;;;;;6.00;4.00;;;;;22.43;53.77;100905.63;5065281;28;45428;-58
2022/10/26 05:57:20;;;;;;;;;4.25;4.00;;;;;22.41;53.92;100910.13;5061592;28;47662;-59
2022/10/26 05:59:46;;;;;;;;;4.00;4.00;;;;;22.42;53.99;100906.56;5059739;28;45800;-57
2022/10/26 06:02:47;;;;;;;;;3.50;3.00;;;;;22.42;53.66;100906.56;5072841;28;46212;-57
2022/10/26 06:05:19;;;;;;;;;4.50;3.00;;;;;22.41;53.68;100907.50;5061091;28;45464;-57
2022/10/26 06:07:47;;;;;;;;;3.50;3.50;;;;;22.41;53.82;100904.84;5058286;28;45296;-58
2022/10/26 06:10:13;;;;;;;;;4.00;3.75;;;;;22.41;53.82;100907.50;5058501;28;45392;-57
2022/10/26 06:12:39;;;;;;;;;5.00;4.50;;;;;22.42;53.78;100908.34;5058352;28;46284;-57
2022/10/26 06:15:05;;;;;;;;;4.25;3.50;;;;;22.41;53.66;100906.63;5058412;28;45412;-57
2022/10/26 06:18:00;;;;;;;;;3.00;3.00;;;;;22.41;53.72;100902.22;5058473;28;45484;-56
2022/10/26 06:20:53;;;;;;;;;2.75;2.75;;;;;22.40;53.69;100900.47;5060871;28;45266;-55
2022/10/26 06:23:43;;;;;;;;;3.25;3.00;;;;;22.39;53.50;100898.78;5065035;28;45645;-57
2022/10/26 06:26:26;;;;;;;;;4.00;4.00;;;;;22.40;53.61;100895.19;5058235;28;45883;-58
2022/10/26 06:29:01;;;;;;;;;2.00;2.00;;;;;22.38;53.51;100905.00;5058349;28;45301;-58
2022/10/26 06:31:26;;;;;;;;;4.25;4.25;;;;;22.37;53.32;100912.09;5058010;28;45548;-56
2022/10/26 06:33:58;;;;;;;;;4.75;3.75;;;;;22.38;53.82;100918.22;5056336;28;46146;-56
2022/10/26 06:36:26;;;;;;;;;4.00;4.00;;;;;22.36;53.60;100923.59;5058080;28;45502;-57
2022/10/26 06:39:00;;;;;;;;;3.00;3.00;;;;;22.37;53.47;100935.84;5057013;28;45502;-56
2022/10/26 06:41:27;;;;;;;;;4.00;4.00;;;;;22.35;53.58;100940.38;5058465;28;45536;-57
2022/10/26 06:43:52;;;;;;;;;4.25;3.00;;;;;22.36;53.44;100942.09;5057718;28;46365;-56
2022/10/26 06:46:39;;;;;;;;;4.25;2.50;;;;;22.36;53.15;100951.78;5056672;28;45646;-55
2022/10/26 06:49:16;;;;;;;;;2.50;2.50;;;;;22.36;53.51;100952.66;5063423;28;45285;-54
2022/10/26 06:52:09;;;;;;;;;3.25;3.00;;;;;22.36;53.65;100951.78;5063210;28;45550;-57
2022/10/26 06:54:52;;;;;;;;;4.00;4.00;;;;;22.37;53.82;100969.31;5057011;28;45704;-57
2022/10/26 06:57:37;;;;;;;;;5.25;3.00;;;;;22.36;53.46;100978.19;5055507;28;45668;-60
2022/10/26 07:00:24;;;;;;;;;3.00;3.00;;;;;22.36;53.33;100984.34;5056644;28;45346;-59
2022/10/26 07:02:50;;;;;;;;;3.25;3.25;;;;;22.36;53.49;100994.03;5057222;28;45366;-58
2022/10/26 07:05:16;;;;;;;;;3.00;3.00;;;;;22.36;53.50;100994.91;5058964;28;46816;-59
2022/10/26 07:07:44;;;;;;;;;4.50;4.50;;;;;22.37;53.24;100995.72;5057044;28;45422;-59
2022/10/26 07:10:10;;;;;;;;;5.25;3.25;;;;;22.37;53.34;101001.00;5057567;28;45424;-58
2022/10/26 07:12:36;;;;;;;;;2.75;2.00;;;;;22.36;53.70;101005.47;5068731;28;44888;-58
2022/10/26 07:15:02;;;;;;;;;4.00;2.00;;;;;22.36;53.60;101005.47;5059843;28;45457;-59
2022/10/26 07:17:29;;;;;;;;;3.00;3.00;;;;;22.37;53.35;101001.00;5062129;28;45280;-61
2022/10/26 07:19:54;;;;;;;;;3.00;3.00;;;;;22.36;53.39;101012.50;5061209;28;45291;-59
2022/10/26 07:22:20;;;;;;;;;5.25;3.00;;;;;22.37;53.24;101019.50;5071965;28;45251;-59
2022/10/26 07:24:50;;;;;;;;;4.00;2.00;;;;;22.38;53.57;101021.19;5064778;28;45469;-58
2022/10/26 07:27:18;;;;;;;;;3.00;3.00;;;;;22.39;53.29;101020.25;5056247;28;45413;-57
2022/10/26 07:29:43;;;;;;;;;3.00;3.00;;;;;22.38;53.21;101035.25;5056817;28;45229;-59
2022/10/26 07:32:09;;;;;;;;;4.25;3.00;;;;;22.40;53.25;101048.38;5056389;28;45604;-60
2022/10/26 07:34:34;;;;;;;;;4.75;2.00;;;;;22.40;53.43;101048.38;5055509;28;45352;-60
2022/10/26 07:36:59;;;;;;;;;2.00;2.00;;;;;22.39;52.89;101057.22;5055844;28;45298;-60
2022/10/26 07:39:25;;;;;;;;;4.25;3.50;;;;;22.41;53.25;101057.16;5055929;28;45402;-60
2022/10/26 07:41:53;;;;;;;;;3.00;3.00;;;;;22.41;53.18;101060.66;5054201;28;45843;-58
2022/10/26 07:44:19;;;;;;;;;2.25;2.25;;;;;22.40;53.28;101064.22;5058146;28;51820;-60
2022/10/26 07:46:44;;;;;;;;;4.50;3.00;;;;;22.41;53.31;101070.38;5063079;28;45315;-59
2022/10/26 07:49:10;;;;;;;;;2.75;2.75;;;;;22.41;53.41;101065.94;5056025;28;45404;-60
2022/10/26 07:51:35;;;;;;;;;3.00;3.00;;;;;22.42;53.33;101072.94;5054584;28;45402;-58
2022/10/26 07:54:01;;;;;;;;;4.00;4.00;;;;;22.40;53.18;101080.06;5056596;28;45576;-59
2022/10/26 07:56:27;;;;;;;;;2.00;2.00;;;;;22.39;53.13;101073.91;5056163;28;45462;-58
2022/10/26 07:58:53;;;;;;;;;5.25;5.00;;;;;22.40;53.36;101080.06;5055545;28;45417;-59
2022/10/26 08:01:19;;;;;;;;;3.00;2.00;;;;;22.38;53.19;101080.13;5056367;28;45596;-61
2022/10/26 08:03:44;;;;;;;;;4.00;2.25;;;;;22.41;52.92;101075.66;5054066;28;46655;-59
2022/10/26 08:06:10;;;;;;;;;5.00;4.00;;;;;22.41;52.78;101092.34;5055965;28;45211;-59
2022/10/26 08:08:36;;;;;;;;;5.50;3.75;;;;;22.41;53.22;101097.63;5055857;28;45820;-60
2022/10/26 08:11:01;;;;;;;;;2.75;2.00;;;;;22.41;53.00;101086.22;5055755;28;45531;-58
2022/10/26 08:13:26;;;;;;;;;3.00;3.00;;;;;22.41;53.32;101089.72;5058578;28;45464;-59
2022/10/26 08:15:57;;;;;;;;;3.50;3.50;;;;;22.42;53.08;101095.84;5059836;28;45266;-59
2022/10/26 08:18:22;;;;;;;;;3.75;3.00;;;;;22.42;52.98;101101.97;5054556;28;45920;-59
2022/10/26 08:20:48;;;;;;;;;5.50;3.00;;;;;22.42;53.07;101104.63;5055997;28;45548;-59
2022/10/26 08:23:13;;;;;;;;;2.67;2.67;;;;;22.41;52.85;101102.91;5054804;28;66998;-58
2022/10/26 08:25:38;;;;;;;;;3.25;3.25;;;;;22.42;52.80;101120.47;5054896;28;56598;-58
2022/10/26 08:28:04;;;;;;;;;2.50;2.00;;;;;22.42;52.88;101109.03;5055313;28;45330;-59
2022/10/26 08:30:30;;;;;;;;;4.00;3.00;;;;;22.41;52.73;101118.75;5055709;28;45236;-59
2022/10/26 08:33:03;;;;;;;;;4.00;3.75;;;;;22.41;52.73;101124.03;5073709;28;46193;-58
2022/10/26 13:14:26;;;;;;;;;3.00;3.00;;;;;22.51;52.05;101320.66;4975998;28;45509;-54
2022/10/26 13:16:53;;;;;;;;;4.75;2.25;;;;;22.52;52.25;101316.22;4980408;28;45859;-53
2022/10/26 13:19:47;;;;;;;;;5.00;3.25;;;;;22.52;52.18;101332.94;4980945;28;45421;-56
2022/10/26 13:22:16;;;;;;;;;2.00;2.00;;;;;22.52;51.98;101334.72;4980006;28;45424;-55
2022/10/26 13:24:50;;;;;;;;;7.25;2.00;;;;;22.52;51.98;101319.72;4979441;28;46298;-55
2022/10/26 13:27:15;;;;;;;;;4.50;1.50;;;;;22.53;52.05;101324.09;4984012;28;45190;-55
2022/10/26 13:30:03;;;;;;;;;2.00;2.00;;;;;22.53;52.17;101333.78;4984183;28;45412;-55
2022/10/26 13:32:37;;;;;;;;;1.50;1.25;;;;;22.53;51.71;101334.66;4996164;28;45339;-51
2022/10/26 13:35:04;;;;;;;;;2.00;2.00;;;;;22.53;51.87;101329.38;4994186;28;45285;-51
2022/10/26 13:37:33;;;;;;;;;5.00;2.00;;;;;22.53;51.93;101329.38;4989419;28;45245;-52
2022/10/26 13:40:03;;;;;;;;;2.00;2.00;;;;;22.53;51.72;101334.66;4980119;28;45488;-53
2022/10/26 13:43:05;;;;;;;;;4.00;2.00;;;;;22.54;51.58;101338.13;4980106;28;45206;-51
2022/10/26 13:45:41;;;;;;;;;2.00;2.00;;;;;22.55;51.84;101335.38;4957548;28;45466;-53
2022/10/26 13:48:23;;;;;;;;;2.00;2.00;;;;;;;;4976433;28;45668;-53
2022/10/26 13:50:54;;;;;;;;;2.00;0.00;;;;;22.52;51.92;101327.66;4979396;28;45422;-54
2022/10/26 13:53:51;;;;;;;;;1.50;1.50;;;;;22.56;51.89;101338.91;4979953;28;45393;-54
2022/10/26 13:56:40;;;;;;;;;4.00;2.00;;;;;22.54;51.62;101335.47;4985084;28;45772;-53
2022/10/26 13:59:09;;;;;;;;;2.25;2.00;;;;;22.56;51.97;101338.91;4983338;28;45649;-53
2022/10/26 14:01:35;;;;;;;;;2.00;2.00;;;;;22.55;51.87;101343.31;4989516;28;44747;-51
2022/10/26 14:04:24;;;;;;;;;2.00;2.00;;;;;22.57;51.63;101343.25;4993721;28;45325;-55
2022/10/26 14:06:51;;;;;;;;;2.00;2.00;;;;;22.57;51.41;101345.03;4989068;28;45460;-55
2022/10/26 14:09:19;;;;;;;;;3.00;2.00;;;;;22.58;51.41;101346.72;4980428;28;45387;-54
2022/10/26 14:11:51;;;;;;;;;1.00;1.00;;;;;22.58;51.67;101344.94;4979857;28;45380;-55
2022/10/26 14:14:24;;;;;;;;;2.75;1.25;;;;;22.57;51.25;101339.75;4979901;28;45334;-51
2022/10/26 14:16:52;;;;;;;;;2.00;2.00;;;;;22.57;51.61;101343.25;4979658;28;46442;-51
2022/10/26 14:19:38;;;;;;;;;2.25;1.75;;;;;22.55;51.44;101345.94;4979658;28;45249;-52
2022/10/26 14:22:05;;;;;;;;;2.00;2.00;;;;;22.52;51.21;101338.22;4980487;28;45206;-52
2022/10/26 14:24:39;;;;;;;;;2.25;1.75;;;;;22.54;51.39;101338.97;4984738;28;45226;-53
2022/10/26 14:27:14;;;;;;;;;1.00;1.00;;;;;22.52;51.52;101338.22;4982024;28;47329;-50
2022/10/26 14:29:39;;;;;;;;;1.25;1.25;;;;;22.54;51.64;101343.41;4979543;28;45472;-51
2022/10/26 14:32:28;;;;;;;;;4.00;2.00;;;;;22.56;51.49;101344.19;4979663;28;45364;-54
2022/10/26 14:34:54;;;;;;;;;2.00;2.00;;;;;22.57;51.39;101350.31;4980112;28;45667;-53
2022/10/26 14:37:34;;;;;;;;;1.00;1.00;;;;;22.53;51.44;101342.56;4979511;28;46325;-51
2022/10/26 14:40:00;;;;;;;;;2.00;1.00;;;;;22.55;51.21;101343.31;4977471;28;45456;-55
2022/10/26 14:42:30;;;;;;;;;1.00;1.00;;;;;22.55;51.32;101351.25;4977357;28;45468;-55
2022/10/26 14:44:56;;;;;;;;;2.75;1.25;;;;;22.54;51.56;101352.19;4979696;28;45378;-55
2022/10/26 14:47:28;;;;;;;;;2.75;2.25;;;;;22.55;51.41;101353.88;4978057;28;46150;-55
2022/10/26 14:49:54;;;;;;;;;3.00;1.00;;;;;22.57;51.10;101355.59;4990507;28;45364;-55
2022/10/26 14:52:26;;;;;;;;;1.25;1.25;;;;;22.55;51.36;101348.59;4993670;28;45385;-55
2022/10/26 14:55:13;;;;;;;;;1.00;1.00;;;;;22.55;51.25;101353.88;4984683;28;45293;-56
2022/10/26 14:57:41;;;;;;;;;2.00;1.00;;;;;22.57;51.62;101358.22;4997728;28;46783;-55
2022/10/26 15:00:21;;;;;;;;;1.00;1.00;;;;;22.55;51.16;101353.88;4999497;28;44921;-52
2022/10/26 15:02:48;;;;;;;;;2.00;1.00;;;;;22.55;51.17;101348.59;4999590;28;44756;-56
2022/10/26 15:05:31;;;;;;;;;2.75;1.75;;;;;22.53;51.14;101347.84;4980066;28;45527;-56
2022/10/26 15:07:56;;;;;;;;;3.00;1.75;;;;;22.53;51.26;101349.63;4977751;28;46201;-55
2022/10/26 15:10:37;;;;;;;;;1.00;1.00;;;;;22.53;51.32;101349.63;4976481;28;45538;-54
2022/10/26 15:13:22;;;;;;;;;2.75;1.50;;;;;22.52;51.33;101347.91;4978642;28;45293;-54
2022/10/26 15:15:49;;;;;;;;;1.00;1.00;;;;;22.51;51.44;101351.50;4977056;28;45386;-55
2022/10/26 15:18:35;;;;;;;;;0.75;0.75;;;;;22.51;51.54;101352.38;4976745;28;45326;-55
2022/10/26 15:21:01;;;;;;;;;1.00;1.00;;;;;22.50;51.73;101348.03;4983814;28;45718;-54
2022/10/26 15:23:29;;;;;;;;;2.75;2.00;;;;;22.49;51.56;101351.59;4980218;28;45421;-56
2022/10/26 15:26:02;;;;;;;;;2.25;1.00;;;;;22.49;51.46;101350.75;4981229;28;45416;-54
2022/10/26 15:28:29;;;;;;;;;2.00;1.00;;;;;22.48;51.40;101346.41;4981853;28;46242;-54
2022/10/26 15:31:00;;;;;;;;;5.00;1.00;;;;;22.47;51.55;101353.47;4978348;28;45397;-56
2022/10/26 15:33:26;;;;;;;;;2.00;2.00;;;;;22.48;51.72;101363.09;4976395;28;45424;-51
2022/10/26 15:36:13;;;;;;;;;1.00;1.00;;;;;22.47;51.30;101360.53;4976281;28;45471;-55
2022/10/26 15:38:39;;;;;;;;;2.00;2.00;;;;;22.46;51.30;101362.31;4976263;28;45463;-52
2022/10/26 15:41:29;;;;;;;;;2.50;2.50;;;;;22.45;51.61;101363.25;4976905;28;45814;-54
2022/10/26 15:43:56;;;;;;;;;2.50;1.00;;;;;22.46;51.30;101364.97;4973635;28;45384;-53
2022/10/26 15:46:23;;;;;;;;;2.50;1.25;;;;;22.44;51.32;101361.53;4977873;28;45484;-56
2022/10/26 15:48:57;;;;;;;;;1.00;1.00;;;;;22.45;51.71;101357.97;4983219;28;46476;-55
2022/10/26 15:51:23;;;;;;;;;1.00;1.00;;;;;22.45;51.42;101360.63;4978052;28;45309;-57
2022/10/26 15:53:49;;;;;;;;;2.00;2.00;;;;;22.45;51.38;101362.41;4976600;28;45400;-52
2022/10/26 15:56:20;;;;;;;;;2.00;1.25;;;;;22.43;51.54;101367.78;4975553;28;45317;-55
2022/10/26 15:58:48;;;;;;;;;2.00;2.00;;;;;22.44;51.42;101366.81;4976281;28;45507;-56
2022/10/26 16:01:32;;;;;;;;;3.00;2.00;;;;;22.43;51.52;101362.50;4976228;28;45877;-55
2022/10/26 16:03:57;;;;;;;;;1.75;1.25;;;;;22.44;51.56;101368.63;4976498;28;45303;-56
2022/10/26 16:06:29;;;;;;;;;1.75;1.00;;;;;22.43;51.50;101359.88;4976534;28;45400;-55
2022/10/26 16:08:59;;;;;;;;;4.50;2.00;;;;;22.43;51.45;101367.78;4976025;28;47268;-53
2022/10/26 16:11:25;;;;;;;;;2.00;2.00;;;;;22.43;51.63;101367.78;4976049;28;45805;-54
2022/10/26 16:13:50;;;;;;;;;1.75;1.00;;;;;22.42;51.40;101368.72;4937176;28;1143089;-55
2022/10/26 16:16:19;;;;;;;;;3.00;1.25;;;;;22.43;51.60;101373.06;4991457;28;45302;-54
2022/10/26 16:18:45;;;;;;;;;1.75;1.25;;;;;22.43;51.55;101377.50;4988011;28;46219;-56
2022/10/26 16:21:16;;;;;;;;;1.00;1.00;;;;;22.41;51.62;101369.66;4984855;28;45182;-51